Time;durP1;ratioP1;P1;durP2;ratioP2;P2;SDS_P1;SDS_P2;PMS_P1;PMS_P2;Temp;Humidity;BMP_temperature;BMP_pressure;BME280_temperature;BME280_humidity;BME280_pressure;Samples;Min_cycle;Max_cycle;Signal;HPM_P1;HPM_P2
2023/11/17 00:00:34;;;;;;;0.10;0.10;;;7.40;99.90;;;;;;6288365;28;20144;-78
2023/11/17 00:03:36;;;;;;;0.10;0.10;;;7.40;99.90;;;;;;6286486;28;20045;-78
2023/11/17 00:06:38;;;;;;;0.10;0.10;;;7.40;99.90;;;;;;6289206;28;20048;-78
2023/11/17 00:09:40;;;;;;;0.10;0.10;;;7.40;99.90;;;;;;6286465;28;20059;-78
2023/11/17 00:12:43;;;;;;;0.10;0.10;;;7.40;99.90;;;;;;6285365;28;20058;-77
2023/11/17 00:15:45;;;;;;;0.10;0.10;;;7.40;99.90;;;;;;6286078;28;20036;-77
2023/11/17 00:18:47;;;;;;;0.10;0.10;;;7.40;99.90;;;;;;6283455;28;20051;-78
2023/11/17 00:21:48;;;;;;;0.10;0.10;;;7.40;99.90;;;;;;6285312;28;20300;-78
2023/11/17 00:24:50;;;;;;;0.20;0.20;;;7.40;99.90;;;;;;6285781;28;20049;-78
2023/11/17 00:27:53;;;;;;;0.08;0.08;;;7.30;99.90;;;;;;6283258;28;20049;-77
2023/11/17 00:30:55;;;;;;;0.10;0.10;;;7.30;99.90;;;;;;6286535;28;20055;-78
2023/11/17 00:33:57;;;;;;;0.10;0.10;;;7.40;99.90;;;;;;6286946;28;20143;-77
2023/11/17 00:37:03;;;;;;;0.10;0.10;;;7.40;99.90;;;;;;6292281;28;20048;-77
2023/11/17 00:40:07;;;;;;;0.17;0.17;;;7.30;99.90;;;;;;6291440;28;20083;-77
2023/11/17 00:43:10;;;;;;;0.10;0.10;;;7.40;99.90;;;;;;6291645;28;20405;-78
2023/11/17 00:46:13;;;;;;;0.10;0.10;;;7.40;99.90;;;;;;6289719;28;20513;-78
2023/11/17 00:49:15;;;;;;;0.10;0.10;;;7.40;99.90;;;;;;6290932;28;20041;-78
2023/11/17 00:52:17;;;;;;;0.10;0.10;;;7.40;99.90;;;;;;6288680;28;20043;-78
2023/11/17 00:55:18;;;;;;;0.03;0.03;;;7.40;99.90;;;;;;6290909;28;20045;-78
2023/11/17 00:58:23;;;;;;;0.10;0.10;;;7.40;99.90;;;;;;6290745;28;20048;-78
2023/11/17 01:01:25;;;;;;;0.15;0.15;;;7.40;99.90;;;;;;6291678;28;20050;-78
2023/11/17 01:04:27;;;;;;;0.20;0.20;;;7.40;99.90;;;;;;6291164;28;20053;-78
2023/11/17 01:07:29;;;;;;;0.10;0.10;;;7.40;99.90;;;;;;6291884;28;20053;-79
2023/11/17 01:10:31;;;;;;;0.10;0.10;;;7.40;99.90;;;;;;6288537;28;20055;-78
2023/11/17 01:13:34;;;;;;;0.10;0.10;;;7.40;99.90;;;;;;6291172;28;20489;-78
2023/11/17 01:16:35;;;;;;;0.10;0.10;;;7.40;99.90;;;;;;6290278;28;20053;-78
2023/11/17 01:19:39;;;;;;;0.00;0.00;;;7.40;99.90;;;;;;6290098;28;20048;-78
2023/11/17 01:22:41;;;;;;;0.03;0.03;;;7.40;99.90;;;;;;6288998;28;20056;-78
2023/11/17 01:25:43;;;;;;;0.10;0.10;;;7.40;99.90;;;;;;6290528;28;20511;-78
2023/11/17 01:28:46;;;;;;;0.10;0.10;;;7.40;99.90;;;;;;6289149;28;20080;-78
2023/11/17 01:31:48;;;;;;;0.10;0.10;;;7.40;99.90;;;;;;6293943;28;20045;-77
2023/11/17 01:34:50;;;;;;;0.10;0.10;;;7.40;99.90;;;;;;6301768;28;20442;-77
2023/11/17 01:37:51;;;;;;;0.10;0.10;;;7.40;99.90;;;;;;6286212;22;20061;-80
2023/11/17 01:40:56;;;;;;;0.10;0.10;;;7.40;99.90;;;;;;6259722;28;20057;-79
2023/11/17 01:43:59;;;;;;;0.10;0.10;;;7.40;99.90;;;;;;6267972;28;20176;-80
2023/11/17 01:47:01;;;;;;;0.00;0.00;;;7.40;99.90;;;;;;6260416;28;20497;-80
2023/11/17 01:50:03;;;;;;;0.10;0.10;;;7.40;99.90;;;;;;6251928;28;20041;-79
2023/11/17 01:53:07;;;;;;;0.10;0.10;;;7.40;99.90;;;;;;6254058;28;20072;-78
2023/11/17 01:56:08;;;;;;;0.10;0.10;;;7.40;99.90;;;;;;6264959;28;20049;-79
2023/11/17 01:59:11;;;;;;;0.10;0.10;;;7.40;99.90;;;;;;6255633;28;20048;-80
2023/11/17 02:02:13;;;;;;;0.10;0.10;;;7.40;99.90;;;;;;6253683;28;20530;-79
2023/11/17 02:05:17;;;;;;;0.00;0.00;;;7.40;99.90;;;;;;6253173;28;20184;-78
2023/11/17 02:08:27;;;;;;;0.10;0.10;;;7.40;99.90;;;;;;6254600;28;20045;-77
2023/11/17 02:11:37;;;;;;;0.10;0.10;;;7.40;99.90;;;;;;6251394;28;20049;-78
2023/11/17 02:15:15;;;;;;;0.10;0.10;;;7.40;99.90;;;;;;6252409;28;20087;-79
2023/11/17 02:18:17;;;;;;;0.03;0.03;;;7.30;99.90;;;;;;6231223;28;20046;-79
2023/11/17 02:21:28;;;;;;;0.10;0.10;;;7.30;99.90;;;;;;6228204;28;20415;-79
2023/11/17 02:24:36;;;;;;;0.20;0.20;;;7.30;99.90;;;;;;6227991;28;20117;-80
2023/11/17 02:27:50;;;;;;;0.20;0.20;;;7.30;99.90;;;;;;6227094;28;20420;-79
2023/11/17 02:30:56;;;;;;;0.10;0.10;;;7.20;99.90;;;;;;6242534;28;20433;-78
2023/11/17 02:34:03;;;;;;;0.10;0.10;;;7.20;99.90;;;;;;6253182;28;20060;-78
2023/11/17 02:37:05;;;;;;;0.00;0.00;;;7.20;99.90;;;;;;6251535;28;20056;-80
2023/11/17 02:40:18;;;;;;;0.10;0.10;;;7.20;99.90;;;;;;6252537;28;20049;-80
2023/11/17 02:43:22;;;;;;;0.10;0.10;;;7.10;99.90;;;;;;6251273;28;20049;-78
2023/11/17 02:46:31;;;;;;;0.10;0.10;;;7.10;99.90;;;;;;6251122;28;20045;-79
2023/11/17 02:49:40;;;;;;;0.13;0.13;;;7.20;99.90;;;;;;6251450;28;20050;-79
2023/11/17 02:52:48;;;;;;;0.20;0.20;;;7.10;99.90;;;;;;6250838;28;20502;-79
2023/11/17 02:55:51;;;;;;;0.10;0.10;;;7.10;99.90;;;;;;6249921;28;20041;-78
2023/11/17 02:58:54;;;;;;;0.20;0.20;;;7.10;99.90;;;;;;6249876;28;20041;-78
2023/11/17 03:01:58;;;;;;;0.20;0.20;;;7.10;99.90;;;;;;6249885;28;20052;-80
2023/11/17 03:04:59;;;;;;;0.10;0.10;;;7.10;99.90;;;;;;6251057;28;20060;-77
2023/11/17 03:08:01;;;;;;;0.10;0.10;;;7.10;99.90;;;;;;6250066;28;20221;-79
2023/11/17 03:11:03;;;;;;;0.05;0.05;;;7.10;99.90;;;;;;6249223;28;20060;-78
2023/11/17 03:14:05;;;;;;;0.20;0.20;;;7.10;99.90;;;;;;6250162;28;20057;-79
2023/11/17 03:17:09;;;;;;;0.10;0.10;;;7.00;99.90;;;;;;6251813;28;20135;-79
2023/11/17 03:20:14;;;;;;;0.20;0.20;;;7.10;99.90;;;;;;6251688;28;20049;-78
2023/11/17 03:23:16;;;;;;;0.10;0.10;;;7.00;99.90;;;;;;6251599;28;20487;-80
2023/11/17 03:26:18;;;;;;;0.10;0.10;;;7.10;99.90;;;;;;6250551;28;20057;-80
2023/11/17 03:29:21;;;;;;;0.10;0.10;;;7.10;99.90;;;;;;6250642;28;20056;-80
2023/11/17 03:32:24;;;;;;;0.10;0.10;;;7.10;99.90;;;;;;6249019;28;20497;-79
2023/11/17 03:35:25;;;;;;;0.10;0.10;;;7.00;99.90;;;;;;6249632;28;20068;-79
2023/11/17 03:38:27;;;;;;;0.10;0.10;;;7.00;99.90;;;;;;6250199;28;20128;-80
2023/11/17 03:41:29;;;;;;;0.20;0.20;;;7.00;99.90;;;;;;6250483;28;20045;-80
2023/11/17 03:44:30;;;;;;;0.10;0.10;;;7.00;99.90;;;;;;6249392;28;20049;-80
2023/11/17 03:47:34;;;;;;;0.10;0.10;;;7.00;99.90;;;;;;6249120;28;20045;-80
2023/11/17 03:50:38;;;;;;;0.10;0.10;;;7.00;99.90;;;;;;6248928;28;20053;-80
2023/11/17 03:53:41;;;;;;;0.10;0.10;;;7.00;99.90;;;;;;6249824;28;20512;-80
2023/11/17 03:56:45;;;;;;;0.10;0.10;;;7.00;99.90;;;;;;6232980;28;20046;-78
2023/11/17 03:59:46;;;;;;;0.20;0.20;;;7.00;99.90;;;;;;6224776;28;20056;-79
2023/11/17 04:02:52;;;;;;;0.20;0.20;;;7.00;99.90;;;;;;6225448;28;20103;-78
2023/11/17 04:05:53;;;;;;;0.17;0.17;;;7.00;99.90;;;;;;6224544;28;20058;-79
2023/11/17 04:08:57;;;;;;;0.17;0.17;;;7.00;99.90;;;;;;6225169;28;20045;-78
2023/11/17 04:12:02;;;;;;;0.20;0.20;;;7.00;99.90;;;;;;6241543;28;20045;-80
2023/11/17 04:15:05;;;;;;;0.10;0.10;;;7.00;99.90;;;;;;6249256;28;20057;-78
2023/11/17 04:18:08;;;;;;;0.10;0.10;;;7.00;99.90;;;;;;6249195;28;20056;-79
2023/11/17 04:21:11;;;;;;;0.10;0.10;;;7.00;99.90;;;;;;6255403;28;20045;-80
2023/11/17 04:24:13;;;;;;;0.10;0.10;;;7.00;99.90;;;;;;6250449;28;20060;-79
2023/11/17 04:27:14;;;;;;;0.20;0.20;;;7.00;99.90;;;;;;6250166;28;20495;-78
2023/11/17 04:30:17;;;;;;;0.10;0.10;;;7.00;99.90;;;;;;6249426;28;20517;-78
2023/11/17 04:33:20;;;;;;;0.10;0.10;;;7.00;99.90;;;;;;6250175;28;20041;-78
2023/11/17 04:36:23;;;;;;;0.10;0.10;;;7.00;99.90;;;;;;6248426;28;20073;-77
2023/11/17 04:39:26;;;;;;;0.00;0.00;;;7.00;99.90;;;;;;6249137;28;20037;-78
2023/11/17 04:42:29;;;;;;;0.10;0.10;;;7.00;99.90;;;;;;6248644;28;20566;-79
2023/11/17 04:45:35;;;;;;;0.10;0.10;;;7.00;99.90;;;;;;6250141;28;20104;-80
2023/11/17 04:48:39;;;;;;;0.13;0.13;;;6.90;99.90;;;;;;6250935;28;20406;-79
2023/11/17 04:51:46;;;;;;;0.20;0.20;;;6.90;99.90;;;;;;6249480;28;20042;-77
2023/11/17 04:54:48;;;;;;;0.17;0.17;;;7.00;99.90;;;;;;6250605;28;20045;-79
2023/11/17 04:57:49;;;;;;;0.10;0.10;;;7.00;99.90;;;;;;6248993;28;20042;-81
2023/11/17 05:00:51;;;;;;;0.10;0.10;;;7.00;99.90;;;;;;6248814;28;20049;-78
2023/11/17 05:03:54;;;;;;;0.00;0.00;;;6.90;99.90;;;;;;6249153;28;20041;-78
2023/11/17 05:06:56;;;;;;;0.10;0.10;;;6.90;99.90;;;;;;6248555;28;20041;-79
2023/11/17 05:09:58;;;;;;;0.20;0.20;;;6.90;99.90;;;;;;6238294;28;20050;-80
2023/11/17 05:13:00;;;;;;;0.10;0.10;;;6.90;99.90;;;;;;6225424;28;20046;-80
2023/11/17 05:16:03;;;;;;;0.10;0.10;;;6.90;99.90;;;;;;6223590;28;20046;-80
2023/11/17 05:19:06;;;;;;;0.10;0.10;;;6.90;99.90;;;;;;6224582;28;20038;-78
2023/11/17 05:22:08;;;;;;;0.20;0.20;;;6.90;99.90;;;;;;6227733;28;20045;-79
2023/11/17 05:25:10;;;;;;;0.10;0.10;;;6.90;99.90;;;;;;6229857;28;20048;-80
2023/11/17 05:28:12;;;;;;;0.10;0.10;;;6.90;99.90;;;;;;6240776;28;20042;-77
2023/11/17 05:31:14;;;;;;;0.10;0.10;;;6.90;99.90;;;;;;6257922;28;20053;-80
2023/11/17 05:34:17;;;;;;;0.10;0.10;;;6.90;99.90;;;;;;6255235;28;20056;-80
2023/11/17 05:37:19;;;;;;;0.00;0.00;;;6.90;99.90;;;;;;6254850;28;20050;-80
2023/11/17 05:40:21;;;;;;;0.10;0.10;;;6.90;99.90;;;;;;6254148;28;20052;-79
2023/11/17 05:43:23;;;;;;;0.10;0.10;;;6.90;99.90;;;;;;6251765;28;20099;-79
2023/11/17 05:46:25;;;;;;;0.10;0.10;;;6.90;99.90;;;;;;6251317;28;20046;-80
2023/11/17 05:49:28;;;;;;;0.08;0.08;;;6.90;99.90;;;;;;6253699;28;20045;-79
2023/11/17 05:52:30;;;;;;;0.10;0.10;;;6.90;99.90;;;;;;6252382;28;20042;-80
2023/11/17 05:55:31;;;;;;;0.15;0.15;;;6.90;99.90;;;;;;6251765;28;20052;-80
2023/11/17 05:58:33;;;;;;;0.08;0.08;;;6.90;99.90;;;;;;6254179;28;20601;-79
2023/11/17 06:01:35;;;;;;;0.10;0.10;;;7.00;99.90;;;;;;6249032;28;20175;-79
2023/11/17 06:04:38;;;;;;;0.10;0.10;;;6.90;99.90;;;;;;6246500;28;20052;-79
2023/11/17 06:07:41;;;;;;;0.10;0.10;;;6.90;99.90;;;;;;6226549;28;20041;-79
2023/11/17 06:10:43;;;;;;;0.10;0.10;;;6.90;99.90;;;;;;6228641;28;20061;-78
2023/11/17 06:13:45;;;;;;;0.10;0.10;;;6.90;99.90;;;;;;6247767;28;20414;-78
2023/11/17 06:16:48;;;;;;;0.10;0.10;;;6.90;99.90;;;;;;6247790;28;20410;-77
2023/11/17 06:19:51;;;;;;;0.10;0.10;;;6.90;99.90;;;;;;6233298;28;20172;-79
2023/11/17 06:22:53;;;;;;;0.10;0.10;;;6.90;99.90;;;;;;6230284;28;20052;-78
2023/11/17 06:25:54;;;;;;;0.10;0.10;;;7.00;99.90;;;;;;6239761;28;20050;-77
2023/11/17 06:28:59;;;;;;;0.20;0.20;;;7.00;99.90;;;;;;6247671;28;20053;-78
2023/11/17 06:32:02;;;;;;;0.10;0.10;;;7.00;99.90;;;;;;6225817;28;20088;-77
2023/11/17 06:35:06;;;;;;;0.00;0.00;;;7.00;99.90;;;;;;6250595;28;20053;-77
2023/11/17 06:38:08;;;;;;;0.08;0.08;;;7.00;99.90;;;;;;6247699;28;20422;-77
2023/11/17 06:41:10;;;;;;;0.10;0.10;;;7.00;99.90;;;;;;6248824;28;20045;-78
2023/11/17 06:44:11;;;;;;;0.10;0.10;;;7.00;99.90;;;;;;6247160;28;20048;-78
2023/11/17 06:47:16;;;;;;;0.10;0.10;;;7.10;99.90;;;;;;6248751;28;20045;-77
2023/11/17 06:50:20;;;;;;;0.10;0.10;;;7.10;99.90;;;;;;6246636;28;20431;-77
2023/11/17 06:53:21;;;;;;;0.10;0.10;;;7.10;99.90;;;;;;6248284;28;20614;-76
2023/11/17 06:56:24;;;;;;;0.10;0.10;;;7.10;99.90;;;;;;6247334;28;20422;-76
2023/11/17 06:59:26;;;;;;;0.10;0.10;;;7.10;99.90;;;;;;6247158;28;20037;-76
2023/11/17 07:02:28;;;;;;;0.10;0.10;;;7.10;99.90;;;;;;6246886;28;20037;-77
2023/11/17 07:05:31;;;;;;;0.10;0.10;;;7.10;99.90;;;;;;6248979;28;20057;-78
2023/11/17 07:08:33;;;;;;;0.20;0.20;;;7.10;99.90;;;;;;6250192;28;20129;-79
2023/11/17 07:11:35;;;;;;;0.10;0.10;;;7.10;99.90;;;;;;6251295;28;20049;-78
2023/11/17 07:14:37;;;;;;;0.10;0.10;;;7.10;99.90;;;;;;6252282;28;20037;-78
2023/11/17 07:17:42;;;;;;;0.10;0.10;;;7.10;99.90;;;;;;6257372;28;20064;-76
2023/11/17 07:20:45;;;;;;;0.10;0.10;;;7.10;99.90;;;;;;6261331;28;20417;-77
2023/11/17 07:23:47;;;;;;;0.10;0.10;;;7.10;99.90;;;;;;6246572;28;20052;-76
2023/11/17 07:26:49;;;;;;;0.00;0.00;;;7.10;99.90;;;;;;6246599;28;20046;-77
2023/11/17 07:29:52;;;;;;;0.10;0.10;;;7.10;99.90;;;;;;6247468;28;20049;-78
2023/11/17 07:32:54;;;;;;;0.10;0.10;;;7.10;99.90;;;;;;6219215;28;20174;-76
2023/11/17 07:35:57;;;;;;;0.10;0.10;;;7.10;99.90;;;;;;6246370;28;20046;-79
2023/11/17 07:39:36;;;;;;;0.00;0.00;;;7.10;99.90;;;;;;6241075;28;20041;-76
2023/11/17 07:42:39;;;;;;;0.08;0.08;;;7.10;99.90;;;;;;6255245;22;20041;-77
2023/11/17 07:45:43;;;;;;;0.10;0.10;;;7.10;99.90;;;;;;6249126;28;20482;-77
2023/11/17 07:48:45;;;;;;;0.20;0.20;;;7.10;99.90;;;;;;6243030;28;20104;-77
2023/11/17 07:51:48;;;;;;;0.10;0.10;;;7.10;99.90;;;;;;6241503;28;20059;-78
2023/11/17 07:54:50;;;;;;;0.10;0.10;;;7.10;99.90;;;;;;6247652;28;20046;-77
2023/11/17 07:57:54;;;;;;;0.10;0.10;;;7.10;99.90;;;;;;6242200;28;20288;-78
2023/11/17 08:00:56;;;;;;;0.10;0.10;;;7.20;99.90;;;;;;6252385;28;20426;-78
2023/11/17 08:03:57;;;;;;;0.10;0.10;;;7.20;99.90;;;;;;6246447;28;20053;-77
2023/11/17 08:07:01;;;;;;;0.10;0.10;;;7.20;99.90;;;;;;6242396;28;20064;-78
2023/11/17 08:10:06;;;;;;;0.10;0.10;;;7.20;99.90;;;;;;6241567;28;20125;-78
2023/11/17 08:13:08;;;;;;;0.10;0.10;;;7.20;99.90;;;;;;6253922;28;20422;-78
2023/11/17 08:16:10;;;;;;;0.10;0.10;;;7.20;99.90;;;;;;6245961;28;20041;-78
2023/11/17 08:19:12;;;;;;;0.10;0.10;;;7.20;99.90;;;;;;6242140;28;20045;-78
2023/11/17 08:22:16;;;;;;;0.10;0.10;;;7.30;99.90;;;;;;6243981;28;20050;-78
2023/11/17 08:25:18;;;;;;;0.10;0.10;;;7.30;99.90;;;;;;6251431;28;20060;-77
2023/11/17 08:29:14;;;;;;;0.10;0.10;;;7.30;99.90;;;;;;6234269;28;20049;-78
2023/11/17 08:32:17;;;;;;;0.15;0.15;;;7.30;99.90;;;;;;6234222;28;20388;-78
2023/11/17 08:35:18;;;;;;;0.17;0.17;;;7.40;99.90;;;;;;6233838;28;20053;-78
2023/11/17 08:38:21;;;;;;;0.10;0.10;;;7.40;99.90;;;;;;6235400;28;20054;-78
2023/11/17 08:41:24;;;;;;;0.10;0.10;;;7.50;99.90;;;;;;6228555;28;20112;-77
2023/11/17 08:44:27;;;;;;;0.10;0.10;;;7.50;99.90;;;;;;6230703;28;20052;-78
2023/11/17 08:47:29;;;;;;;0.20;0.20;;;7.50;99.90;;;;;;6233145;28;20141;-78
2023/11/17 08:50:31;;;;;;;0.17;0.17;;;7.40;99.90;;;;;;6235351;28;20096;-77
2023/11/17 08:53:34;;;;;;;0.03;0.03;;;7.40;99.90;;;;;;6232981;28;20046;-77
2023/11/17 08:56:36;;;;;;;0.10;0.10;;;7.40;99.90;;;;;;6232621;28;20068;-78
2023/11/17 08:59:38;;;;;;;0.03;0.03;;;7.40;99.90;;;;;;6233742;28;20053;-78
2023/11/17 09:02:41;;;;;;;0.00;0.00;;;7.40;99.90;;;;;;6232654;28;20177;-77
2023/11/17 09:05:43;;;;;;;0.10;0.10;;;7.30;99.90;;;;;;6232483;28;20409;-77
2023/11/17 09:08:47;;;;;;;0.10;0.10;;;7.40;99.90;;;;;;6233517;28;20041;-78
2023/11/17 09:11:48;;;;;;;0.20;0.20;;;7.40;99.90;;;;;;6235305;28;20053;-78
2023/11/17 09:14:51;;;;;;;0.10;0.10;;;7.40;99.90;;;;;;6236828;28;20075;-78
2023/11/17 09:17:53;;;;;;;0.00;0.00;;;7.40;99.90;;;;;;6238371;28;20128;-76
2023/11/17 09:20:57;;;;;;;0.15;0.15;;;7.40;99.90;;;;;;6235424;28;20045;-78
2023/11/17 09:24:01;;;;;;;0.10;0.10;;;7.50;99.90;;;;;;6218551;28;20033;-77
2023/11/17 09:27:07;;;;;;;0.10;0.10;;;7.50;99.90;;;;;;6233695;28;20060;-78
2023/11/17 09:30:13;;;;;;;0.00;0.00;;;7.50;99.90;;;;;;6233428;28;20337;-77
2023/11/17 09:33:14;;;;;;;0.10;0.10;;;7.60;99.90;;;;;;6235262;28;20050;-78
2023/11/17 09:36:16;;;;;;;0.00;0.00;;;7.60;99.90;;;;;;6225879;28;20849;-78
2023/11/17 09:39:19;;;;;;;0.15;0.15;;;7.50;99.90;;;;;;6247580;28;20056;-77
2023/11/17 09:42:21;;;;;;;0.00;0.00;;;7.50;99.90;;;;;;6233060;28;20057;-78
2023/11/17 09:45:25;;;;;;;0.10;0.10;;;7.60;99.90;;;;;;6236008;28;20136;-78
2023/11/17 09:48:29;;;;;;;0.10;0.10;;;7.60;99.90;;;;;;6235749;28;20084;-78
2023/11/17 09:51:32;;;;;;;0.10;0.10;;;7.60;99.90;;;;;;6233938;28;20052;-78
2023/11/17 09:54:37;;;;;;;0.10;0.10;;;7.60;99.90;;;;;;6228214;28;20402;-78
2023/11/17 09:57:40;;;;;;;0.10;0.10;;;7.50;99.90;;;;;;6227180;28;20056;-78
2023/11/17 10:00:45;;;;;;;0.05;0.05;;;7.60;99.90;;;;;;6236601;28;20064;-78
2023/11/17 10:03:49;;;;;;;0.10;0.10;;;7.70;99.90;;;;;;6239169;28;20034;-77
2023/11/17 10:06:52;;;;;;;0.10;0.10;;;7.70;99.90;;;;;;6241952;28;20041;-78
2023/11/17 10:09:59;;;;;;;0.10;0.10;;;7.70;99.90;;;;;;6243774;28;20418;-78
2023/11/17 10:13:02;;;;;;;0.10;0.10;;;7.80;99.90;;;;;;6243384;28;20044;-78
2023/11/17 10:16:07;;;;;;;0.00;0.00;;;7.80;99.90;;;;;;6226468;28;20042;-78
2023/11/17 10:19:10;;;;;;;0.10;0.10;;;7.80;99.90;;;;;;6240649;28;20107;-78
2023/11/17 10:22:13;;;;;;;0.10;0.10;;;7.80;99.90;;;;;;6250083;28;20059;-78
2023/11/17 10:25:19;;;;;;;0.10;0.10;;;7.80;99.90;;;;;;6241404;28;20502;-77
2023/11/17 10:28:21;;;;;;;0.13;0.13;;;7.70;99.90;;;;;;6250319;28;20242;-77
2023/11/17 10:31:24;;;;;;;0.10;0.10;;;7.70;99.90;;;;;;6249975;28;20455;-78
2023/11/17 10:34:29;;;;;;;0.00;0.00;;;7.70;99.90;;;;;;6242533;28;20049;-78
2023/11/17 10:37:34;;;;;;;0.10;0.10;;;7.70;99.90;;;;;;6242941;28;20055;-77
2023/11/17 10:40:38;;;;;;;0.10;0.10;;;7.80;99.90;;;;;;6240948;28;20042;-78
2023/11/17 10:46:50;;;;;;;0.10;0.10;;;7.80;99.90;;;;;;6494617;22;20137;-77
2023/11/17 10:50:07;;;;;;;0.10;0.10;;;7.80;99.90;;;;;;6221228;28;20054;-76
2023/11/17 10:53:14;;;;;;;0.15;0.15;;;7.80;99.90;;;;;;6226581;28;20046;-78
2023/11/17 10:56:24;;;;;;;0.10;0.10;;;7.80;99.90;;;;;;6240948;28;20064;-79
2023/11/17 10:59:34;;;;;;;0.10;0.10;;;7.80;99.90;;;;;;6251080;28;20052;-79
2023/11/17 11:02:36;;;;;;;0.00;0.00;;;7.80;99.90;;;;;;6249621;28;20061;-78
2023/11/17 11:05:39;;;;;;;0.10;0.10;;;7.70;99.90;;;;;;6248589;28;20049;-79
2023/11/17 11:08:51;;;;;;;0.10;0.10;;;7.70;99.90;;;;;;6232441;28;20494;-80
2023/11/17 11:11:54;;;;;;;0.00;0.00;;;7.70;99.90;;;;;;6249253;28;20041;-78
2023/11/17 11:14:56;;;;;;;0.13;0.13;;;7.70;99.90;;;;;;6211409;28;20945;-76
2023/11/17 11:18:03;;;;;;;0.00;0.00;;;7.80;99.90;;;;;;6204371;28;20439;-75
2023/11/17 11:21:07;;;;;;;0.10;0.10;;;7.90;99.90;;;;;;6224976;28;20042;-76
2023/11/17 11:24:12;;;;;;;0.10;0.10;;;8.00;99.90;;;;;;6226365;28;20046;-76
2023/11/17 11:27:16;;;;;;;0.10;0.10;;;8.00;99.90;;;;;;6223843;28;20037;-75
2023/11/17 11:30:19;;;;;;;0.00;0.00;;;8.00;99.90;;;;;;6223098;28;20894;-76
2023/11/17 11:33:21;;;;;;;0.10;0.10;;;7.90;99.90;;;;;;6225783;28;20061;-76
2023/11/17 11:36:23;;;;;;;2.35;1.60;;;8.00;99.90;;;;;;6228485;28;20056;-79
2023/11/17 11:39:25;;;;;;;0.98;0.60;;;8.00;99.90;;;;;;6232117;28;20045;-78
2023/11/17 11:42:28;;;;;;;2.90;1.08;;;8.10;99.90;;;;;;6229465;28;20057;-79
2023/11/17 11:45:30;;;;;;;1.70;1.60;;;8.10;99.90;;;;;;6229102;28;20045;-77
2023/11/17 11:48:35;;;;;;;3.67;0.75;;;8.10;99.90;;;;;;6229468;28;20045;-77
2023/11/17 11:51:42;;;;;;;4.25;3.28;;;8.10;99.90;;;;;;6229871;28;20050;-76
2023/11/17 11:54:44;;;;;;;1.92;1.50;;;8.00;99.90;;;;;;6230163;28;20045;-76
2023/11/17 11:57:58;;;;;;;5.45;3.03;;;8.00;99.90;;;;;;6229829;28;20053;-77
2023/11/17 12:01:00;;;;;;;1.88;1.77;;;8.00;99.90;;;;;;6226794;28;20085;-78
2023/11/17 12:04:05;;;;;;;2.60;1.70;;;8.00;99.90;;;;;;6226965;28;20045;-75
2023/11/17 12:07:35;;;;;;;2.80;1.92;;;8.00;99.90;;;;;;6225959;28;20042;-76
2023/11/17 12:10:45;;;;;;;3.80;1.35;;;7.90;99.90;;;;;;6222578;28;20080;-74
2023/11/17 12:13:49;;;;;;;4.72;0.90;;;7.90;99.90;;;;;;6221115;28;20498;-75
2023/11/17 12:16:54;;;;;;;0.75;0.75;;;7.80;99.90;;;;;;6222401;28;20045;-75
2023/11/17 12:19:56;;;;;;;0.80;0.80;;;7.60;99.90;;;;;;6229035;28;20060;-76
2023/11/17 12:22:59;;;;;;;6.45;1.13;;;7.60;99.90;;;;;;6226181;28;20052;-76
2023/11/17 12:26:01;;;;;;;0.52;0.43;;;7.50;99.90;;;;;;6224038;28;20042;-76
2023/11/17 12:29:04;;;;;;;0.93;0.90;;;7.60;99.90;;;;;;6226440;28;20045;-78
2023/11/17 12:32:07;;;;;;;1.70;1.40;;;7.60;99.90;;;;;;6224569;28;20045;-76
2023/11/17 12:35:11;;;;;;;6.03;0.90;;;7.60;99.90;;;;;;6223172;28;20553;-76
2023/11/17 12:38:14;;;;;;;1.90;1.52;;;7.70;99.90;;;;;;6225938;28;20152;-76
2023/11/17 12:41:16;;;;;;;2.05;1.05;;;7.70;99.90;;;;;;6223658;28;20128;-76
2023/11/17 12:44:19;;;;;;;14.32;10.70;;;7.70;99.90;;;;;;6227122;28;20076;-77
2023/11/17 12:47:21;;;;;;;6.60;4.28;;;7.70;99.90;;;;;;6223593;28;20053;-77
2023/11/17 12:50:23;;;;;;;3.47;1.70;;;7.60;99.90;;;;;;6224502;28;20053;-76
2023/11/17 12:53:25;;;;;;;4.78;2.92;;;7.60;99.90;;;;;;6224522;28;20041;-77
2023/11/17 12:56:28;;;;;;;2.20;1.92;;;7.60;99.90;;;;;;6225183;28;20426;-76
2023/11/17 12:59:33;;;;;;;15.18;11.68;;;7.70;99.90;;;;;;6242048;28;20691;-77
2023/11/17 13:02:35;;;;;;;8.00;2.63;;;7.70;99.90;;;;;;6244964;28;20064;-77
2023/11/17 13:05:37;;;;;;;4.28;1.90;;;7.70;99.90;;;;;;6245299;28;20049;-77
2023/11/17 13:08:40;;;;;;;3.00;1.77;;;7.80;99.90;;;;;;6245277;28;20053;-77
2023/11/17 13:11:43;;;;;;;6.13;2.72;;;7.80;99.90;;;;;;6229578;28;20053;-75
2023/11/17 13:14:46;;;;;;;2.10;1.70;;;7.90;99.90;;;;;;6237518;28;20124;-76
2023/11/17 13:17:47;;;;;;;16.40;10.55;;;7.90;99.90;;;;;;6238888;28;20057;-78
2023/11/17 13:20:49;;;;;;;22.17;17.77;;;8.00;99.90;;;;;;6246352;28;20406;-77
2023/11/17 13:23:54;;;;;;;4.80;3.40;;;8.00;99.90;;;;;;6237758;28;20057;-77
2023/11/17 13:26:56;;;;;;;1.83;1.45;;;8.00;99.90;;;;;;6246129;28;20049;-77
2023/11/17 13:29:59;;;;;;;9.75;6.60;;;8.10;99.90;;;;;;6224854;28;20057;-77
2023/11/17 13:33:02;;;;;;;9.85;8.27;;;8.20;99.90;;;;;;6226137;28;20050;-77
2023/11/17 13:36:05;;;;;;;7.57;5.43;;;8.30;99.90;;;;;;6221974;28;20053;-77
2023/11/17 13:39:15;;;;;;;3.03;2.75;;;8.40;99.90;;;;;;6222639;28;20053;-77
2023/11/17 13:42:17;;;;;;;6.15;3.05;;;8.50;99.90;;;;;;6220673;28;20049;-77
2023/11/17 13:45:21;;;;;;;14.65;4.30;;;8.60;99.90;;;;;;6228949;28;20625;-77
2023/11/17 13:48:24;;;;;;;2.08;1.88;;;8.80;99.90;;;;;;6226252;28;20052;-78
2023/11/17 13:51:26;;;;;;;4.78;2.72;;;8.90;99.90;;;;;;6229226;28;20125;-77
2023/11/17 13:54:29;;;;;;;2.58;2.22;;;8.90;99.90;;;;;;6229683;28;20056;-78
2023/11/17 13:57:31;;;;;;;4.68;1.50;;;8.80;99.90;;;;;;6233679;28;20057;-77
2023/11/17 14:00:35;;;;;;;8.77;2.33;;;8.60;99.90;;;;;;6229317;28;20053;-78
2023/11/17 14:03:36;;;;;;;7.10;1.98;;;8.50;99.90;;;;;;6227433;28;20522;-77
2023/11/17 14:06:38;;;;;;;2.60;2.28;;;8.40;99.90;;;;;;6226389;28;20057;-78
2023/11/17 14:09:40;;;;;;;5.13;2.95;;;8.40;99.90;;;;;;6228953;28;20065;-77
2023/11/17 14:12:42;;;;;;;2.20;1.90;;;8.30;99.90;;;;;;6229662;28;20049;-81
2023/11/17 14:15:45;;;;;;;2.90;2.22;;;8.20;99.90;;;;;;6225642;28;20042;-78
2023/11/17 14:18:47;;;;;;;5.13;2.70;;;8.00;99.90;;;;;;6229687;28;20046;-76
2023/11/17 14:21:50;;;;;;;4.57;2.13;;;8.00;99.90;;;;;;6228268;28;20053;-77
2023/11/17 14:24:52;;;;;;;4.63;2.90;;;7.90;99.90;;;;;;6227215;28;20049;-77
2023/11/17 14:27:53;;;;;;;2.42;1.50;;;7.80;99.90;;;;;;6228834;28;20046;-77
2023/11/17 14:30:56;;;;;;;3.03;2.75;;;7.70;99.90;;;;;;6234095;28;20520;-78
2023/11/17 14:33:58;;;;;;;2.42;2.13;;;7.70;99.90;;;;;;6233137;28;20045;-79
2023/11/17 14:37:00;;;;;;;2.53;1.23;;;7.70;99.90;;;;;;6240479;28;20058;-78
2023/11/17 14:40:06;;;;;;;2.10;1.63;;;7.60;99.90;;;;;;6228187;28;20532;-83
2023/11/17 14:47:18;;;;;;;4.75;3.60;;;8.60;99.90;;;;;;6314028;27;20353;-86
2023/11/17 14:50:21;;;;;;;4.72;3.10;;;8.90;99.90;;;;;;6281545;28;20071;-85
2023/11/17 14:53:22;;;;;;;3.85;2.72;;;8.70;99.90;;;;;;6276708;28;20056;-85
2023/11/17 14:56:24;;;;;;;5.15;3.75;;;8.40;99.90;;;;;;6273727;28;20784;-74
2023/11/17 14:59:26;;;;;;;;;;;9.50;99.90;;;;;;6288640;28;20040;-85
2023/11/17 15:02:29;;;;;;;5.20;3.28;;;10.00;99.90;;;;;;6296476;28;20432;-77
2023/11/17 15:05:31;;;;;;;;;;;10.30;99.90;;;;;;6286552;28;20453;-77
2023/11/17 15:08:33;;;;;;;;;;;9.60;99.90;;;;;;6299288;28;19954;-77
2023/11/17 15:11:36;;;;;;;;;;;9.20;99.90;;;;;;6290814;28;19965;-77
2023/11/17 15:14:38;;;;;;;7.68;3.97;;;8.80;99.90;;;;;;6283029;28;20435;-83
2023/11/17 15:17:41;;;;;;;6.15;4.13;;;8.60;99.90;;;;;;6293582;28;20442;-78
2023/11/17 15:20:43;;;;;;;4.80;4.05;;;9.00;99.90;;;;;;6263655;28;20406;-77
2023/11/17 15:23:45;;;;;;;4.15;3.75;;;9.00;99.90;;;;;;6290066;28;20117;-78
2023/11/17 15:26:48;;;;;;;5.13;3.75;;;8.80;99.90;;;;;;6293399;28;20041;-78
2023/11/17 15:29:50;;;;;;;6.53;5.35;;;8.50;99.90;;;;;;6291864;28;20462;-78
2023/11/17 15:32:53;;;;;;;4.68;4.13;;;8.30;99.90;;;;;;6286536;28;20076;-76
2023/11/17 15:35:56;;;;;;;3.97;3.58;;;8.20;99.90;;;;;;6271817;28;20146;-79
2023/11/17 15:39:00;;;;;;;4.30;3.65;;;8.10;99.90;;;;;;6314472;28;20041;-76
2023/11/17 15:42:02;;;;;;;4.70;3.85;;;7.90;99.90;;;;;;6291243;28;20238;-78
2023/11/17 15:45:11;;;;;;;7.25;4.40;;;7.90;99.90;;;;;;6294197;28;20143;-79
2023/11/17 15:48:15;;;;;;;4.30;3.63;;;7.80;99.90;;;;;;6290649;28;20640;-80
2023/11/17 15:51:17;;;;;;;6.28;3.70;;;7.70;99.90;;;;;;6270347;27;20056;-77
2023/11/17 15:54:19;;;;;;;4.70;3.97;;;7.70;99.90;;;;;;6290980;28;20051;-80
2023/11/17 15:57:21;;;;;;;4.50;3.72;;;7.60;99.90;;;;;;6283208;28;20052;-78
2023/11/17 16:00:27;;;;;;;5.43;3.75;;;7.60;99.90;;;;;;6273887;28;20120;-77
2023/11/17 16:03:30;;;;;;;6.72;3.72;;;7.50;99.90;;;;;;6276428;28;20056;-78
2023/11/17 16:06:31;;;;;;;5.22;3.80;;;7.40;99.90;;;;;;6270666;28;20044;-79
2023/11/17 16:09:33;;;;;;;4.72;3.58;;;7.40;99.90;;;;;;6274699;28;21179;-77
2023/11/17 16:12:36;;;;;;;6.88;4.10;;;7.30;99.90;;;;;;6277118;28;20048;-78
2023/11/17 16:15:38;;;;;;;4.03;3.17;;;7.30;99.90;;;;;;6277962;28;20553;-79